createdAt,value
2022-12-20T00:02:08.309Z,17.60
2022-12-20T00:07:07.650Z,17.97
2022-12-20T00:12:09.441Z,17.07
2022-12-20T00:17:13.145Z,19.87
2022-12-20T00:22:12.525Z,17.65
2022-12-20T00:27:13.625Z,17.93
2022-12-20T00:32:13.082Z,17.60
2022-12-20T00:37:11.786Z,19.00
2022-12-20T00:42:10.764Z,17.00
2022-12-20T00:47:11.442Z,16.67
2022-12-20T00:52:10.244Z,16.67
2022-12-20T00:57:09.147Z,18.27
2022-12-20T01:02:08.038Z,17.57
2022-12-20T01:07:08.874Z,16.00
2022-12-20T01:12:08.204Z,15.73
2022-12-20T01:17:07.306Z,18.70
2022-12-20T01:22:06.150Z,17.67
2022-12-20T01:27:06.544Z,17.00
2022-12-20T01:32:05.731Z,19.10
2022-12-20T01:37:04.677Z,17.27
2022-12-20T01:42:05.376Z,17.20
2022-12-20T01:47:04.594Z,17.43
2022-12-20T01:52:07.554Z,17.23
2022-12-20T01:57:12.665Z,13.43
2022-12-20T02:02:13.372Z,17.20
2022-12-20T02:07:15.137Z,18.10
2022-12-20T02:12:18.985Z,16.63
2022-12-20T02:17:30.842Z,17.70
2022-12-20T02:22:46.036Z,17.40
2022-12-20T02:27:55.746Z,15.67
2022-12-20T02:33:02.289Z,18.23
2022-12-20T02:38:06.222Z,16.63
2022-12-20T02:43:29.037Z,16.87
2022-12-20T02:48:33.609Z,16.93
2022-12-20T02:53:33.524Z,18.63
2022-12-20T02:58:39.498Z,18.20
2022-12-20T03:03:40.388Z,19.37
2022-12-20T03:08:39.399Z,17.23
2022-12-20T03:13:38.351Z,18.07
2022-12-20T03:18:42.082Z,17.73
2022-12-20T03:23:41.066Z,20.33
2022-12-20T03:28:39.889Z,19.03
2022-12-20T03:33:42.076Z,18.07
2022-12-20T03:38:43.336Z,17.90
2022-12-20T03:43:42.319Z,21.83
2022-12-20T03:48:42.806Z,20.40
2022-12-20T03:53:41.600Z,19.27
2022-12-20T03:58:40.844Z,23.43
2022-12-20T04:03:40.904Z,21.67
2022-12-20T04:08:41.087Z,21.33
2022-12-20T04:13:41.795Z,21.33
2022-12-20T04:18:42.046Z,22.47
2022-12-20T04:23:44.605Z,22.77
2022-12-20T04:28:44.403Z,22.70
2022-12-20T04:33:43.921Z,22.70
2022-12-20T04:38:45.396Z,19.60
2022-12-20T04:43:44.474Z,20.33
2022-12-20T04:48:59.825Z,21.13
2022-12-20T04:54:01.637Z,19.80
2022-12-20T04:59:20.795Z,20.10
2022-12-20T05:04:23.080Z,21.00
2022-12-20T05:09:23.476Z,21.03
2022-12-20T05:14:23.607Z,21.03
2022-12-20T05:19:22.728Z,21.00
2022-12-20T05:24:39.196Z,23.10
2022-12-20T05:30:02.264Z,26.17
2022-12-20T05:35:01.621Z,25.03
2022-12-20T05:40:01.863Z,24.13
2022-12-20T05:45:02.919Z,24.67
2022-12-20T05:50:06.180Z,23.90
2022-12-20T05:55:11.728Z,24.13
2022-12-20T06:00:15.658Z,24.07
2022-12-20T06:05:15.723Z,23.23
2022-12-20T06:10:14.905Z,20.70
2022-12-20T06:15:25.229Z,22.17
2022-12-20T06:20:24.806Z,23.93
2022-12-20T06:25:24.453Z,23.23
2022-12-20T06:30:31.861Z,23.50
2022-12-20T06:35:42.123Z,24.87
2022-12-20T06:40:41.165Z,26.57
2022-12-20T06:45:42.541Z,23.43
2022-12-20T06:50:43.828Z,24.67
2022-12-20T06:55:43.230Z,25.43
2022-12-20T07:00:43.910Z,29.20
2022-12-20T07:05:42.947Z,27.50
2022-12-20T07:10:42.007Z,26.10
2022-12-20T07:15:41.025Z,27.10
2022-12-20T07:20:41.310Z,24.43
2022-12-20T07:25:40.273Z,24.77
2022-12-20T07:30:39.283Z,24.53
2022-12-20T07:35:38.330Z,24.07
2022-12-20T07:40:42.304Z,27.27
2022-12-20T07:45:41.447Z,26.47
2022-12-20T07:50:40.691Z,27.87
2022-12-20T07:56:03.093Z,24.03
2022-12-20T08:01:10.596Z,26.57
2022-12-20T08:06:10.635Z,26.83
2022-12-20T08:11:35.937Z,27.10
2022-12-20T08:16:34.947Z,25.83
2022-12-20T08:21:34.203Z,28.03
2022-12-20T08:26:40.626Z,27.53
2022-12-20T08:31:44.431Z,30.40
2022-12-20T08:36:46.547Z,28.67
2022-12-20T08:41:46.726Z,29.53
2022-12-20T08:46:46.089Z,25.40
2022-12-20T08:51:44.992Z,28.57
2022-12-20T08:57:04.316Z,29.43
2022-12-20T09:02:32.726Z,27.90
2022-12-20T09:07:57.484Z,30.07
2022-12-20T09:13:18.354Z,33.13
2022-12-20T09:18:18.027Z,34.15
2022-12-20T09:23:16.913Z,34.50
2022-12-20T09:28:17.487Z,31.30
2022-12-20T09:33:16.494Z,28.07
2022-12-20T09:38:27.383Z,26.93
2022-12-20T09:43:57.306Z,28.30
2022-12-20T09:49:17.012Z,31.70
2022-12-20T09:54:25.047Z,27.85
2022-12-20T09:59:25.964Z,27.55
2022-12-20T10:04:27.260Z,23.80
2022-12-20T10:09:56.849Z,24.30
2022-12-20T10:15:11.447Z,23.50
2022-12-20T10:20:30.083Z,24.75
2022-12-20T10:25:32.798Z,24.52
2022-12-20T10:30:35.736Z,25.00
2022-12-20T10:35:40.623Z,27.15
2022-12-20T10:46:04.949Z,26.55
2022-12-20T10:51:16.544Z,22.10
2022-12-20T10:56:21.656Z,23.70
2022-12-20T11:01:23.971Z,20.90
2022-12-20T11:06:25.629Z,23.33
2022-12-20T11:11:26.796Z,24.45
2022-12-20T11:16:34.950Z,25.23
2022-12-20T11:21:43.481Z,25.65
2022-12-20T11:26:59.008Z,25.35
2022-12-20T11:32:07.582Z,27.10
2022-12-20T11:37:20.144Z,23.05
2022-12-20T11:42:26.141Z,25.87
2022-12-20T11:47:46.324Z,24.83
2022-12-20T11:52:49.170Z,25.70
2022-12-20T11:58:17.411Z,25.75
2022-12-20T12:03:24.162Z,24.08
2022-12-20T12:08:31.649Z,27.33
2022-12-20T12:13:42.032Z,23.80
2022-12-20T12:18:43.596Z,27.02
2022-12-20T12:24:11.803Z,26.75
2022-12-20T12:29:22.751Z,28.75
2022-12-20T12:34:48.430Z,25.58
2022-12-20T12:40:27.815Z,29.63
2022-12-20T12:45:48.226Z,30.52
2022-12-20T12:50:51.657Z,30.13
2022-12-20T13:00:54.717Z,32.25
2022-12-20T13:06:21.687Z,30.70
2022-12-20T13:11:47.139Z,30.23
2022-12-20T13:17:11.414Z,33.25
2022-12-20T13:22:26.585Z,33.88
2022-12-20T13:28:11.838Z,34.75
2022-12-20T13:33:48.036Z,34.67
2022-12-20T13:39:52.764Z,34.88
2022-12-20T13:44:54.643Z,33.22
2022-12-20T13:49:56.600Z,31.05
2022-12-20T13:55:00.916Z,33.30
2022-12-20T14:00:09.275Z,29.33
2022-12-20T14:05:18.888Z,31.42
2022-12-20T14:10:22.217Z,31.23
2022-12-20T14:15:30.291Z,33.90
2022-12-20T14:20:35.177Z,32.33
2022-12-20T14:25:44.244Z,33.72
2022-12-20T14:30:46.183Z,32.58
2022-12-20T14:35:49.532Z,30.38
2022-12-20T14:40:56.100Z,31.10
2022-12-20T14:46:10.010Z,29.52
2022-12-20T14:51:10.911Z,28.08
2022-12-20T14:56:16.056Z,34.38
2022-12-20T15:01:47.110Z,38.95
2022-12-20T15:06:50.327Z,48.85
2022-12-20T15:11:51.735Z,49.35
2022-12-20T15:16:50.883Z,53.95
2022-12-20T15:21:51.824Z,41.50
2022-12-20T15:27:03.600Z,62.45
2022-12-20T15:44:32.585Z,35.57
2022-12-20T15:55:01.432Z,30.70
2022-12-20T16:00:02.155Z,32.27
2022-12-20T16:56:32.083Z,36.37
2022-12-20T17:01:37.182Z,33.95
2022-12-20T17:06:36.238Z,32.00
2022-12-20T17:11:36.791Z,34.10
2022-12-20T17:16:35.697Z,32.77
2022-12-20T17:26:58.174Z,32.43
2022-12-20T17:31:57.557Z,31.67
2022-12-20T17:36:58.108Z,39.23
2022-12-20T17:41:58.506Z,37.07
2022-12-20T17:46:58.565Z,32.93
2022-12-20T17:51:57.436Z,33.73
2022-12-20T17:57:00.594Z,28.40
2022-12-20T18:01:59.662Z,28.80
2022-12-20T18:07:02.375Z,32.43
2022-12-20T18:12:02.821Z,46.47
2022-12-20T18:17:01.851Z,30.87
2022-12-20T18:22:04.641Z,30.60
2022-12-20T18:27:06.542Z,31.80
2022-12-20T18:32:08.292Z,41.73
2022-12-20T18:37:11.032Z,31.67
2022-12-20T18:42:11.374Z,31.70
2022-12-20T18:47:11.341Z,32.27
2022-12-20T18:52:12.419Z,28.87
2022-12-20T18:57:12.904Z,29.83
2022-12-20T19:02:14.700Z,28.73
2022-12-20T19:07:13.836Z,29.17
2022-12-20T19:12:14.189Z,30.50
2022-12-20T19:17:15.210Z,28.67
2022-12-20T19:22:14.477Z,26.60
2022-12-20T19:27:18.569Z,28.77
2022-12-20T19:32:18.599Z,28.73
2022-12-20T19:37:18.636Z,30.10
2022-12-20T19:42:26.364Z,27.87
2022-12-20T19:47:26.690Z,29.37
2022-12-20T19:52:29.097Z,27.63
2022-12-20T19:57:29.726Z,28.93
2022-12-20T20:02:29.318Z,25.57
2022-12-20T20:07:31.493Z,31.13
2022-12-20T20:12:32.083Z,35.50
2022-12-20T20:17:32.041Z,32.90
2022-12-20T20:22:33.751Z,31.73
2022-12-20T20:27:37.016Z,31.20
2022-12-20T20:32:48.529Z,31.00
2022-12-20T20:37:59.318Z,30.33
2022-12-20T20:43:07.040Z,33.80
2022-12-20T20:48:09.387Z,32.67
2022-12-20T20:53:17.418Z,31.53
2022-12-20T20:58:18.091Z,31.60
2022-12-20T21:03:20.598Z,31.50
2022-12-20T21:08:23.652Z,30.93
2022-12-20T21:13:34.220Z,28.03
2022-12-20T21:18:35.829Z,30.60
2022-12-20T21:23:36.708Z,29.43
2022-12-20T21:28:37.349Z,30.17
2022-12-20T21:33:36.311Z,30.20
2022-12-20T21:38:35.833Z,27.13
2022-12-20T21:44:07.626Z,28.43
2022-12-20T21:49:06.458Z,28.93
2022-12-20T21:54:05.508Z,29.03
2022-12-20T21:59:06.242Z,29.93
2022-12-20T22:04:07.148Z,28.90
2022-12-20T22:09:07.910Z,26.20
2022-12-20T22:14:08.640Z,25.53
2022-12-20T22:19:09.126Z,26.67
2022-12-20T22:24:08.803Z,24.80
2022-12-20T22:29:09.787Z,27.40
2022-12-20T22:34:08.801Z,25.77
2022-12-20T22:39:07.706Z,24.63
2022-12-20T22:44:07.355Z,22.50
2022-12-20T22:49:07.763Z,24.60
2022-12-20T22:54:06.683Z,24.90
2022-12-20T22:59:06.509Z,24.13
2022-12-20T23:04:05.462Z,23.27
2022-12-20T23:09:05.953Z,19.80
2022-12-20T23:14:22.926Z,18.00
2022-12-20T23:19:21.864Z,20.33
2022-12-20T23:24:22.082Z,19.67
2022-12-20T23:29:20.841Z,20.37
2022-12-20T23:34:19.971Z,19.33
2022-12-20T23:39:18.803Z,20.17
2022-12-20T23:44:18.982Z,24.77
2022-12-20T23:49:18.042Z,21.87
2022-12-20T23:54:19.663Z,23.70
2022-12-20T23:59:19.809Z,22.60
